PBD9526 USDD-UUWW
Flight info
| Callsign | PBD9526 |
|---|---|
| Flight time | N/A |
| Altitude | 34000 |
| Route | SUTOT1M SUTOT T816 UHT T791 GONIB T187 NAZOL T791 KTL T187 ROMTA ROMTA3A |
| Aircraft | B738/M-SDE2E3FGHIRWXY/LB1 |
Departure
| Time | 2026-04-16 16:36 |
|---|---|
| Airport | Salekhard Airport (USDD) |
Arrival
| Time | N/A |
|---|---|
| Airport | Vnukovo International Airport (UUWW) |
| Time | Latitude | Longitude | Altitude | Speed | Heading |
|---|---|---|---|---|---|
| 2026-04-16 15:17 | 66.59010 | 66.59233 | 225 ft | 0 kts | 49° |
| 2026-04-16 15:33 | 66.59014 | 66.59248 | 225 ft | 2 kts | 67° |
| 2026-04-16 15:34 | 66.59014 | 66.59324 | 225 ft | 6 kts | 110° |
| 2026-04-16 15:34 | 66.58976 | 66.59449 | 225 ft | 11 kts | 135° |
| 2026-04-16 15:34 | 66.58910 | 66.59581 | 225 ft | 13 kts | 147° |
| 2026-04-16 15:34 | 66.58823 | 66.59706 | 225 ft | 11 kts | 156° |
| 2026-04-16 15:35 | 66.58751 | 66.59620 | 225 ft | 14 kts | 238° |
| 2026-04-16 15:35 | 66.58705 | 66.59406 | 225 ft | 11 kts | 247° |
| 2026-04-16 15:35 | 66.58689 | 66.59325 | 225 ft | 0 kts | 250° |
| 2026-04-16 15:36 | 66.58689 | 66.59322 | 225 ft | 3 kts | 249° |
| 2026-04-16 15:37 | 66.58659 | 66.59167 | 225 ft | 10 kts | 247° |
| 2026-04-16 15:37 | 66.58640 | 66.59081 | 225 ft | 0 kts | 253° |
| 2026-04-16 15:37 | 66.58627 | 66.59016 | 225 ft | 13 kts | 240° |
| 2026-04-16 15:38 | 66.58574 | 66.58806 | 225 ft | 12 kts | 240° |
| 2026-04-16 15:38 | 66.58543 | 66.58623 | 225 ft | 8 kts | 267° |
| 2026-04-16 15:38 | 66.58543 | 66.58585 | 225 ft | 0 kts | 273° |
| 2026-04-16 15:39 | 66.58539 | 66.58498 | 225 ft | 8 kts | 256° |
| 2026-04-16 15:40 | 66.58515 | 66.58496 | 225 ft | 2 kts | 106° |
| 2026-04-16 15:40 | 66.58515 | 66.58525 | 225 ft | 0 kts | 83° |
| 2026-04-16 15:40 | 66.58518 | 66.58550 | 225 ft | 3 kts | 68° |
| 2026-04-16 15:40 | 66.58521 | 66.58562 | 225 ft | 0 kts | 63° |
| 2026-04-16 15:41 | 66.58521 | 66.58567 | 225 ft | 0 kts | 63° |
| 2026-04-16 15:41 | 66.58524 | 66.58577 | 225 ft | 0 kts | 61° |
| 2026-04-16 16:33 | 66.58524 | 66.58578 | 225 ft | 0 kts | 61° |
| 2026-04-16 16:33 | 66.58524 | 66.58577 | 225 ft | 0 kts | 61° |
| 2026-04-16 16:35 | 66.58524 | 66.58578 | 225 ft | 0 kts | 61° |
| 2026-04-16 16:35 | 66.58538 | 66.58638 | 225 ft | 24 kts | 59° |
| 2026-04-16 16:35 | 66.58721 | 66.59551 | 225 ft | 88 kts | 63° |
| 2026-04-16 16:36 | 66.59124 | 66.61216 | 227 ft | 135 kts | 55° |
| 2026-04-16 16:36 | 66.59695 | 66.63448 | 460 ft | 157 kts | 62° |
| 2026-04-16 16:36 | 66.60194 | 66.65931 | 868 ft | 167 kts | 54° |
| 2026-04-16 16:36 | 66.61234 | 66.67587 | 1086 ft | 195 kts | 7° |
| 2026-04-16 16:37 | 66.62565 | 66.66625 | 1602 ft | 213 kts | 321° |
| 2026-04-16 16:37 | 66.63330 | 66.63331 | 2083 ft | 237 kts | 277° |
| 2026-04-16 16:37 | 66.63047 | 66.59225 | 2793 ft | 249 kts | 242° |
| 2026-04-16 16:37 | 66.62138 | 66.55489 | 3750 ft | 252 kts | 235° |
| 2026-04-16 16:38 | 66.61216 | 66.51782 | 4666 ft | 256 kts | 237° |
| 2026-04-16 16:38 | 66.60326 | 66.47897 | 5586 ft | 259 kts | 238° |
| 2026-04-16 16:38 | 66.59462 | 66.43985 | 6468 ft | 261 kts | 238° |
| 2026-04-16 16:38 | 66.58585 | 66.39976 | 7338 ft | 264 kts | 238° |